sensor_id;sensor_type;location;lat;lon;timestamp;P1;durP1;ratioP1;P2;durP2;ratioP2
52284;SDS011;38238;53.304;6.606;2022-07-29T00:01:46;3.17;;;1.33;;
52284;SDS011;38238;53.304;6.606;2022-07-29T00:04:11;3.45;;;1.50;;
52284;SDS011;38238;53.304;6.606;2022-07-29T00:06:37;5.05;;;1.58;;
52284;SDS011;38238;53.304;6.606;2022-07-29T00:09:03;2.75;;;1.35;;
52284;SDS011;38238;53.304;6.606;2022-07-29T00:11:29;3.47;;;1.65;;
52284;SDS011;38238;53.304;6.606;2022-07-29T00:13:55;3.20;;;1.65;;
52284;SDS011;38238;53.304;6.606;2022-07-29T00:16:20;2.50;;;1.40;;
52284;SDS011;38238;53.304;6.606;2022-07-29T00:18:46;2.95;;;1.40;;
52284;SDS011;38238;53.304;6.606;2022-07-29T00:21:12;3.75;;;1.50;;
52284;SDS011;38238;53.304;6.606;2022-07-29T00:23:37;3.70;;;1.83;;
52284;SDS011;38238;53.304;6.606;2022-07-29T00:26:03;4.45;;;1.48;;
52284;SDS011;38238;53.304;6.606;2022-07-29T00:28:29;3.70;;;1.63;;
52284;SDS011;38238;53.304;6.606;2022-07-29T00:30:54;2.08;;;1.35;;
52284;SDS011;38238;53.304;6.606;2022-07-29T00:33:20;3.17;;;1.73;;
52284;SDS011;38238;53.304;6.606;2022-07-29T00:35:47;3.38;;;1.75;;
52284;SDS011;38238;53.304;6.606;2022-07-29T00:38:16;3.53;;;1.67;;
52284;SDS011;38238;53.304;6.606;2022-07-29T00:40:43;4.10;;;1.80;;
52284;SDS011;38238;53.304;6.606;2022-07-29T00:43:10;3.22;;;1.90;;
52284;SDS011;38238;53.304;6.606;2022-07-29T00:45:37;4.88;;;1.77;;
52284;SDS011;38238;53.304;6.606;2022-07-29T00:48:03;4.70;;;1.98;;
52284;SDS011;38238;53.304;6.606;2022-07-29T00:50:30;4.35;;;2.00;;
52284;SDS011;38238;53.304;6.606;2022-07-29T00:52:57;4.07;;;1.95;;
52284;SDS011;38238;53.304;6.606;2022-07-29T00:55:23;4.22;;;1.95;;
52284;SDS011;38238;53.304;6.606;2022-07-29T00:57:49;3.78;;;1.50;;
52284;SDS011;38238;53.304;6.606;2022-07-29T01:00:19;5.30;;;1.92;;
52284;SDS011;38238;53.304;6.606;2022-07-29T01:02:46;4.38;;;1.70;;
52284;SDS011;38238;53.304;6.606;2022-07-29T01:05:23;3.63;;;1.40;;
52284;SDS011;38238;53.304;6.606;2022-07-29T01:07:51;4.22;;;1.70;;
52284;SDS011;38238;53.304;6.606;2022-07-29T01:10:19;2.78;;;1.80;;
52284;SDS011;38238;53.304;6.606;2022-07-29T01:12:46;3.00;;;1.50;;
52284;SDS011;38238;53.304;6.606;2022-07-29T01:15:14;3.13;;;1.77;;
52284;SDS011;38238;53.304;6.606;2022-07-29T01:17:44;2.72;;;1.67;;
52284;SDS011;38238;53.304;6.606;2022-07-29T01:25:54;5.32;;;1.80;;
52284;SDS011;38238;53.304;6.606;2022-07-29T01:29:08;3.78;;;2.22;;
52284;SDS011;38238;53.304;6.606;2022-07-29T01:31:49;2.38;;;1.63;;
52284;SDS011;38238;53.304;6.606;2022-07-29T01:34:21;3.42;;;1.83;;
52284;SDS011;38238;53.304;6.606;2022-07-29T01:36:51;2.90;;;1.63;;
52284;SDS011;38238;53.304;6.606;2022-07-29T01:39:27;4.32;;;1.85;;
52284;SDS011;38238;53.304;6.606;2022-07-29T01:42:01;3.47;;;1.80;;
52284;SDS011;38238;53.304;6.606;2022-07-29T01:47:37;6.57;;;1.70;;
52284;SDS011;38238;53.304;6.606;2022-07-29T01:50:16;3.45;;;1.70;;
52284;SDS011;38238;53.304;6.606;2022-07-29T01:55:15;3.33;;;1.52;;
52284;SDS011;38238;53.304;6.606;2022-07-29T01:57:43;4.93;;;2.33;;
52284;SDS011;38238;53.304;6.606;2022-07-29T02:00:11;4.28;;;1.73;;
52284;SDS011;38238;53.304;6.606;2022-07-29T02:02:39;3.13;;;1.83;;
52284;SDS011;38238;53.304;6.606;2022-07-29T02:05:07;4.32;;;1.88;;
52284;SDS011;38238;53.304;6.606;2022-07-29T02:07:35;4.65;;;1.70;;
52284;SDS011;38238;53.304;6.606;2022-07-29T02:10:03;3.70;;;2.30;;
52284;SDS011;38238;53.304;6.606;2022-07-29T02:12:31;7.65;;;2.30;;
52284;SDS011;38238;53.304;6.606;2022-07-29T02:14:59;4.55;;;1.95;;
52284;SDS011;38238;53.304;6.606;2022-07-29T02:17:28;4.47;;;2.20;;
52284;SDS011;38238;53.304;6.606;2022-07-29T02:19:59;3.15;;;1.83;;
52284;SDS011;38238;53.304;6.606;2022-07-29T02:22:26;5.07;;;2.25;;
52284;SDS011;38238;53.304;6.606;2022-07-29T02:24:55;3.63;;;2.08;;
52284;SDS011;38238;53.304;6.606;2022-07-29T02:27:22;4.72;;;2.28;;
52284;SDS011;38238;53.304;6.606;2022-07-29T02:29:49;4.32;;;2.10;;
52284;SDS011;38238;53.304;6.606;2022-07-29T02:32:17;4.63;;;2.10;;
52284;SDS011;38238;53.304;6.606;2022-07-29T02:34:44;4.25;;;1.95;;
52284;SDS011;38238;53.304;6.606;2022-07-29T02:37:12;5.28;;;2.15;;
52284;SDS011;38238;53.304;6.606;2022-07-29T02:39:39;5.63;;;2.50;;
52284;SDS011;38238;53.304;6.606;2022-07-29T02:42:08;4.30;;;2.15;;
52284;SDS011;38238;53.304;6.606;2022-07-29T02:44:37;4.82;;;2.42;;
52284;SDS011;38238;53.304;6.606;2022-07-29T02:49:53;4.75;;;2.30;;
52284;SDS011;38238;53.304;6.606;2022-07-29T02:52:37;3.65;;;1.90;;
52284;SDS011;38238;53.304;6.606;2022-07-29T02:57:58;5.65;;;2.10;;
52284;SDS011;38238;53.304;6.606;2022-07-29T03:00:31;3.97;;;2.05;;
52284;SDS011;38238;53.304;6.606;2022-07-29T03:03:02;3.80;;;1.80;;
52284;SDS011;38238;53.304;6.606;2022-07-29T03:05:32;6.80;;;2.20;;
52284;SDS011;38238;53.304;6.606;2022-07-29T03:08:00;5.40;;;2.20;;
52284;SDS011;38238;53.304;6.606;2022-07-29T03:10:28;4.97;;;2.30;;
52284;SDS011;38238;53.304;6.606;2022-07-29T03:12:55;4.80;;;2.20;;
52284;SDS011;38238;53.304;6.606;2022-07-29T03:15:22;4.60;;;2.00;;
52284;SDS011;38238;53.304;6.606;2022-07-29T03:17:49;4.40;;;1.92;;
52284;SDS011;38238;53.304;6.606;2022-07-29T03:20:16;4.15;;;2.10;;
52284;SDS011;38238;53.304;6.606;2022-07-29T03:22:43;3.42;;;1.98;;
52284;SDS011;38238;53.304;6.606;2022-07-29T03:25:16;5.65;;;2.10;;
52284;SDS011;38238;53.304;6.606;2022-07-29T03:27:45;3.58;;;2.10;;
52284;SDS011;38238;53.304;6.606;2022-07-29T03:30:11;3.50;;;1.95;;
52284;SDS011;38238;53.304;6.606;2022-07-29T03:32:38;5.53;;;2.22;;
52284;SDS011;38238;53.304;6.606;2022-07-29T03:35:04;4.63;;;2.10;;
52284;SDS011;38238;53.304;6.606;2022-07-29T03:37:32;5.57;;;2.10;;
52284;SDS011;38238;53.304;6.606;2022-07-29T03:39:58;4.03;;;1.90;;
52284;SDS011;38238;53.304;6.606;2022-07-29T03:42:30;5.93;;;1.92;;
52284;SDS011;38238;53.304;6.606;2022-07-29T03:44:58;5.82;;;2.25;;
52284;SDS011;38238;53.304;6.606;2022-07-29T03:47:28;5.55;;;2.15;;
52284;SDS011;38238;53.304;6.606;2022-07-29T03:49:56;5.07;;;2.13;;
52284;SDS011;38238;53.304;6.606;2022-07-29T03:52:26;5.60;;;2.22;;
52284;SDS011;38238;53.304;6.606;2022-07-29T03:54:52;3.97;;;1.70;;
52284;SDS011;38238;53.304;6.606;2022-07-29T03:57:18;3.53;;;1.70;;
52284;SDS011;38238;53.304;6.606;2022-07-29T03:59:48;3.45;;;1.90;;
52284;SDS011;38238;53.304;6.606;2022-07-29T04:02:15;3.65;;;2.03;;
52284;SDS011;38238;53.304;6.606;2022-07-29T04:04:42;5.30;;;1.88;;
52284;SDS011;38238;53.304;6.606;2022-07-29T04:07:08;5.00;;;2.08;;
52284;SDS011;38238;53.304;6.606;2022-07-29T04:09:37;3.10;;;1.90;;
52284;SDS011;38238;53.304;6.606;2022-07-29T04:12:03;4.65;;;1.77;;
52284;SDS011;38238;53.304;6.606;2022-07-29T04:14:30;3.30;;;1.80;;
52284;SDS011;38238;53.304;6.606;2022-07-29T04:16:57;3.10;;;1.95;;
52284;SDS011;38238;53.304;6.606;2022-07-29T04:19:23;4.78;;;1.70;;
52284;SDS011;38238;53.304;6.606;2022-07-29T04:21:48;3.60;;;1.77;;
52284;SDS011;38238;53.304;6.606;2022-07-29T04:24:14;4.50;;;1.75;;
52284;SDS011;38238;53.304;6.606;2022-07-29T04:26:40;4.60;;;1.95;;
52284;SDS011;38238;53.304;6.606;2022-07-29T04:29:05;5.40;;;2.05;;
52284;SDS011;38238;53.304;6.606;2022-07-29T04:31:31;3.75;;;1.85;;
52284;SDS011;38238;53.304;6.606;2022-07-29T04:33:57;4.43;;;1.88;;
52284;SDS011;38238;53.304;6.606;2022-07-29T04:36:22;5.10;;;2.17;;
52284;SDS011;38238;53.304;6.606;2022-07-29T04:38:48;5.03;;;2.15;;
52284;SDS011;38238;53.304;6.606;2022-07-29T04:41:14;5.47;;;2.10;;
52284;SDS011;38238;53.304;6.606;2022-07-29T04:43:39;3.75;;;2.00;;
52284;SDS011;38238;53.304;6.606;2022-07-29T04:46:05;4.30;;;1.70;;
52284;SDS011;38238;53.304;6.606;2022-07-29T04:48:32;5.38;;;2.00;;
52284;SDS011;38238;53.304;6.606;2022-07-29T04:50:58;4.50;;;1.85;;
52284;SDS011;38238;53.304;6.606;2022-07-29T04:53:24;4.00;;;1.65;;
52284;SDS011;38238;53.304;6.606;2022-07-29T04:55:49;4.85;;;1.90;;
52284;SDS011;38238;53.304;6.606;2022-07-29T04:58:15;3.75;;;2.08;;
52284;SDS011;38238;53.304;6.606;2022-07-29T05:00:41;4.97;;;1.65;;
52284;SDS011;38238;53.304;6.606;2022-07-29T05:03:06;4.97;;;1.90;;
52284;SDS011;38238;53.304;6.606;2022-07-29T05:05:32;3.92;;;2.00;;
52284;SDS011;38238;53.304;6.606;2022-07-29T05:07:58;3.65;;;1.90;;
52284;SDS011;38238;53.304;6.606;2022-07-29T05:10:23;5.30;;;2.38;;
52284;SDS011;38238;53.304;6.606;2022-07-29T05:12:50;6.00;;;2.40;;
52284;SDS011;38238;53.304;6.606;2022-07-29T05:15:15;4.22;;;2.13;;
52284;SDS011;38238;53.304;6.606;2022-07-29T05:17:42;5.05;;;2.00;;
52284;SDS011;38238;53.304;6.606;2022-07-29T05:20:08;4.00;;;2.17;;
52284;SDS011;38238;53.304;6.606;2022-07-29T05:22:34;4.10;;;1.98;;
52284;SDS011;38238;53.304;6.606;2022-07-29T05:25:00;4.80;;;2.00;;
52284;SDS011;38238;53.304;6.606;2022-07-29T05:27:27;5.43;;;2.15;;
52284;SDS011;38238;53.304;6.606;2022-07-29T05:29:52;4.72;;;1.95;;
52284;SDS011;38238;53.304;6.606;2022-07-29T05:32:18;5.40;;;2.20;;
52284;SDS011;38238;53.304;6.606;2022-07-29T05:34:44;5.18;;;1.85;;
52284;SDS011;38238;53.304;6.606;2022-07-29T05:37:10;3.78;;;2.08;;
52284;SDS011;38238;53.304;6.606;2022-07-29T05:39:35;4.88;;;2.30;;
52284;SDS011;38238;53.304;6.606;2022-07-29T05:42:01;5.63;;;2.03;;
52284;SDS011;38238;53.304;6.606;2022-07-29T05:44:27;6.63;;;2.10;;
52284;SDS011;38238;53.304;6.606;2022-07-29T05:46:53;3.85;;;1.98;;
52284;SDS011;38238;53.304;6.606;2022-07-29T05:49:19;4.28;;;1.95;;
52284;SDS011;38238;53.304;6.606;2022-07-29T05:51:44;4.45;;;2.40;;
52284;SDS011;38238;53.304;6.606;2022-07-29T05:54:10;3.72;;;2.00;;
52284;SDS011;38238;53.304;6.606;2022-07-29T05:56:36;3.80;;;1.90;;
52284;SDS011;38238;53.304;6.606;2022-07-29T05:59:02;4.07;;;2.10;;
52284;SDS011;38238;53.304;6.606;2022-07-29T06:01:28;4.57;;;2.25;;
52284;SDS011;38238;53.304;6.606;2022-07-29T06:03:54;3.60;;;1.95;;
52284;SDS011;38238;53.304;6.606;2022-07-29T06:06:19;5.35;;;2.20;;
52284;SDS011;38238;53.304;6.606;2022-07-29T06:08:45;7.32;;;2.50;;
52284;SDS011;38238;53.304;6.606;2022-07-29T06:11:11;4.22;;;1.90;;
52284;SDS011;38238;53.304;6.606;2022-07-29T06:13:36;3.38;;;1.80;;
52284;SDS011;38238;53.304;6.606;2022-07-29T06:16:02;3.88;;;1.85;;
52284;SDS011;38238;53.304;6.606;2022-07-29T06:18:29;4.57;;;1.95;;
52284;SDS011;38238;53.304;6.606;2022-07-29T06:20:54;5.63;;;2.00;;
52284;SDS011;38238;53.304;6.606;2022-07-29T06:23:20;5.18;;;1.90;;
52284;SDS011;38238;53.304;6.606;2022-07-29T06:25:46;4.30;;;2.30;;
52284;SDS011;38238;53.304;6.606;2022-07-29T06:28:13;6.25;;;2.65;;
52284;SDS011;38238;53.304;6.606;2022-07-29T06:30:39;5.45;;;2.47;;
52284;SDS011;38238;53.304;6.606;2022-07-29T06:33:05;4.90;;;1.92;;
52284;SDS011;38238;53.304;6.606;2022-07-29T06:35:34;3.70;;;1.90;;
52284;SDS011;38238;53.304;6.606;2022-07-29T06:38:01;3.55;;;1.90;;
52284;SDS011;38238;53.304;6.606;2022-07-29T06:40:28;5.05;;;1.98;;
52284;SDS011;38238;53.304;6.606;2022-07-29T06:43:12;5.53;;;2.50;;
52284;SDS011;38238;53.304;6.606;2022-07-29T06:45:38;5.22;;;2.05;;
52284;SDS011;38238;53.304;6.606;2022-07-29T06:48:06;4.25;;;1.90;;
52284;SDS011;38238;53.304;6.606;2022-07-29T06:50:31;4.25;;;2.35;;
52284;SDS011;38238;53.304;6.606;2022-07-29T06:52:57;5.70;;;2.28;;
52284;SDS011;38238;53.304;6.606;2022-07-29T06:55:23;5.15;;;2.20;;
52284;SDS011;38238;53.304;6.606;2022-07-29T06:57:49;5.53;;;1.90;;
52284;SDS011;38238;53.304;6.606;2022-07-29T07:00:16;4.03;;;2.03;;
52284;SDS011;38238;53.304;6.606;2022-07-29T07:02:42;4.13;;;1.88;;
52284;SDS011;38238;53.304;6.606;2022-07-29T07:05:07;4.38;;;2.20;;
52284;SDS011;38238;53.304;6.606;2022-07-29T07:07:33;5.70;;;2.08;;
52284;SDS011;38238;53.304;6.606;2022-07-29T07:09:59;4.65;;;2.22;;
52284;SDS011;38238;53.304;6.606;2022-07-29T07:12:25;5.35;;;2.08;;
52284;SDS011;38238;53.304;6.606;2022-07-29T07:14:50;6.03;;;1.90;;
52284;SDS011;38238;53.304;6.606;2022-07-29T07:17:16;4.93;;;2.33;;
52284;SDS011;38238;53.304;6.606;2022-07-29T07:19:42;4.15;;;1.95;;
52284;SDS011;38238;53.304;6.606;2022-07-29T07:22:07;5.57;;;2.10;;
52284;SDS011;38238;53.304;6.606;2022-07-29T07:24:33;4.30;;;2.10;;
52284;SDS011;38238;53.304;6.606;2022-07-29T07:26:59;3.70;;;1.95;;
52284;SDS011;38238;53.304;6.606;2022-07-29T07:29:24;4.75;;;2.03;;
52284;SDS011;38238;53.304;6.606;2022-07-29T07:31:50;4.18;;;1.92;;
52284;SDS011;38238;53.304;6.606;2022-07-29T07:34:15;4.28;;;1.95;;
52284;SDS011;38238;53.304;6.606;2022-07-29T07:36:41;5.55;;;2.40;;
52284;SDS011;38238;53.304;6.606;2022-07-29T07:39:07;5.30;;;2.30;;
52284;SDS011;38238;53.304;6.606;2022-07-29T07:41:32;4.65;;;1.88;;
52284;SDS011;38238;53.304;6.606;2022-07-29T07:43:58;4.88;;;2.47;;
52284;SDS011;38238;53.304;6.606;2022-07-29T07:46:24;4.60;;;2.00;;
52284;SDS011;38238;53.304;6.606;2022-07-29T07:48:49;4.78;;;2.22;;
52284;SDS011;38238;53.304;6.606;2022-07-29T07:51:17;6.75;;;2.28;;
52284;SDS011;38238;53.304;6.606;2022-07-29T07:53:43;5.43;;;2.22;;
52284;SDS011;38238;53.304;6.606;2022-07-29T07:56:09;6.18;;;2.22;;
52284;SDS011;38238;53.304;6.606;2022-07-29T07:58:35;5.22;;;2.00;;
52284;SDS011;38238;53.304;6.606;2022-07-29T08:01:01;4.53;;;2.20;;
52284;SDS011;38238;53.304;6.606;2022-07-29T08:03:27;3.85;;;1.88;;
52284;SDS011;38238;53.304;6.606;2022-07-29T08:05:53;4.07;;;2.38;;
52284;SDS011;38238;53.304;6.606;2022-07-29T08:08:19;4.60;;;2.17;;
52284;SDS011;38238;53.304;6.606;2022-07-29T08:10:45;4.82;;;1.90;;
52284;SDS011;38238;53.304;6.606;2022-07-29T08:13:17;3.67;;;1.98;;
52284;SDS011;38238;53.304;6.606;2022-07-29T08:15:43;6.15;;;2.53;;
52284;SDS011;38238;53.304;6.606;2022-07-29T08:18:10;3.38;;;1.92;;
52284;SDS011;38238;53.304;6.606;2022-07-29T08:20:36;5.60;;;2.35;;
52284;SDS011;38238;53.304;6.606;2022-07-29T08:23:04;3.60;;;2.00;;
52284;SDS011;38238;53.304;6.606;2022-07-29T08:25:35;4.25;;;2.20;;
52284;SDS011;38238;53.304;6.606;2022-07-29T08:28:01;4.72;;;2.10;;
52284;SDS011;38238;53.304;6.606;2022-07-29T08:30:27;3.63;;;1.95;;
52284;SDS011;38238;53.304;6.606;2022-07-29T08:32:52;3.90;;;2.33;;
52284;SDS011;38238;53.304;6.606;2022-07-29T08:35:19;3.40;;;1.98;;
52284;SDS011;38238;53.304;6.606;2022-07-29T08:37:45;6.32;;;2.47;;
52284;SDS011;38238;53.304;6.606;2022-07-29T08:40:11;9.82;;;2.92;;
52284;SDS011;38238;53.304;6.606;2022-07-29T08:42:37;5.35;;;2.35;;
52284;SDS011;38238;53.304;6.606;2022-07-29T08:45:03;3.95;;;2.05;;
52284;SDS011;38238;53.304;6.606;2022-07-29T08:47:29;6.50;;;2.63;;
52284;SDS011;38238;53.304;6.606;2022-07-29T08:49:55;17.38;;;3.90;;
52284;SDS011;38238;53.304;6.606;2022-07-29T08:52:21;9.30;;;2.80;;
52284;SDS011;38238;53.304;6.606;2022-07-29T08:54:51;5.55;;;2.45;;
52284;SDS011;38238;53.304;6.606;2022-07-29T08:57:18;5.90;;;2.30;;
52284;SDS011;38238;53.304;6.606;2022-07-29T08:59:44;6.13;;;1.92;;
52284;SDS011;38238;53.304;6.606;2022-07-29T09:02:15;4.70;;;1.80;;
52284;SDS011;38238;53.304;6.606;2022-07-29T09:04:44;5.85;;;2.20;;
52284;SDS011;38238;53.304;6.606;2022-07-29T09:07:11;5.65;;;2.80;;
52284;SDS011;38238;53.304;6.606;2022-07-29T09:09:40;4.90;;;2.20;;
52284;SDS011;38238;53.304;6.606;2022-07-29T09:12:06;5.10;;;2.40;;
52284;SDS011;38238;53.304;6.606;2022-07-29T09:14:33;3.88;;;2.38;;
52284;SDS011;38238;53.304;6.606;2022-07-29T09:16:58;5.75;;;2.72;;
52284;SDS011;38238;53.304;6.606;2022-07-29T09:19:26;5.90;;;2.50;;
52284;SDS011;38238;53.304;6.606;2022-07-29T09:21:56;5.45;;;2.70;;
52284;SDS011;38238;53.304;6.606;2022-07-29T09:24:25;5.10;;;2.33;;
52284;SDS011;38238;53.304;6.606;2022-07-29T09:27:17;4.88;;;2.45;;
52284;SDS011;38238;53.304;6.606;2022-07-29T09:29:46;5.20;;;2.20;;
52284;SDS011;38238;53.304;6.606;2022-07-29T09:32:12;4.25;;;2.05;;
52284;SDS011;38238;53.304;6.606;2022-07-29T09:34:38;5.07;;;2.78;;
52284;SDS011;38238;53.304;6.606;2022-07-29T09:37:04;5.32;;;2.88;;
52284;SDS011;38238;53.304;6.606;2022-07-29T09:39:31;5.85;;;2.55;;
52284;SDS011;38238;53.304;6.606;2022-07-29T09:41:58;4.13;;;2.28;;
52284;SDS011;38238;53.304;6.606;2022-07-29T09:44:39;6.13;;;2.33;;
52284;SDS011;38238;53.304;6.606;2022-07-29T09:47:11;7.10;;;2.42;;
52284;SDS011;38238;53.304;6.606;2022-07-29T09:52:28;6.60;;;2.60;;
52284;SDS011;38238;53.304;6.606;2022-07-29T09:55:04;5.20;;;2.25;;
52284;SDS011;38238;53.304;6.606;2022-07-29T09:57:31;4.57;;;2.63;;
52284;SDS011;38238;53.304;6.606;2022-07-29T10:00:04;5.28;;;2.47;;
52284;SDS011;38238;53.304;6.606;2022-07-29T10:02:32;7.35;;;2.50;;
52284;SDS011;38238;53.304;6.606;2022-07-29T10:05:00;4.63;;;2.53;;
52284;SDS011;38238;53.304;6.606;2022-07-29T10:07:27;5.22;;;2.40;;
52284;SDS011;38238;53.304;6.606;2022-07-29T10:10:09;8.32;;;2.67;;
52284;SDS011;38238;53.304;6.606;2022-07-29T10:12:35;6.07;;;2.60;;
52284;SDS011;38238;53.304;6.606;2022-07-29T10:15:16;4.30;;;2.30;;
52284;SDS011;38238;53.304;6.606;2022-07-29T10:17:42;5.28;;;2.60;;
52284;SDS011;38238;53.304;6.606;2022-07-29T10:20:09;6.40;;;2.78;;
52284;SDS011;38238;53.304;6.606;2022-07-29T10:22:35;5.38;;;2.50;;
52284;SDS011;38238;53.304;6.606;2022-07-29T10:25:01;4.47;;;1.85;;
52284;SDS011;38238;53.304;6.606;2022-07-29T10:27:28;8.55;;;2.78;;
52284;SDS011;38238;53.304;6.606;2022-07-29T10:29:54;6.50;;;2.50;;
52284;SDS011;38238;53.304;6.606;2022-07-29T10:32:22;6.75;;;2.40;;
52284;SDS011;38238;53.304;6.606;2022-07-29T10:37:58;8.55;;;2.63;;
52284;SDS011;38238;53.304;6.606;2022-07-29T10:43:41;8.32;;;3.20;;
52284;SDS011;38238;53.304;6.606;2022-07-29T10:46:09;5.93;;;2.60;;
52284;SDS011;38238;53.304;6.606;2022-07-29T10:49:03;4.75;;;2.70;;
52284;SDS011;38238;53.304;6.606;2022-07-29T10:51:56;5.63;;;2.50;;
52284;SDS011;38238;53.304;6.606;2022-07-29T10:57:15;4.50;;;2.60;;
52284;SDS011;38238;53.304;6.606;2022-07-29T10:59:49;7.35;;;3.25;;
52284;SDS011;38238;53.304;6.606;2022-07-29T11:05:04;11.00;;;3.60;;
52284;SDS011;38238;53.304;6.606;2022-07-29T11:07:34;7.10;;;2.72;;
52284;SDS011;38238;53.304;6.606;2022-07-29T11:20:38;5.72;;;3.10;;
52284;SDS011;38238;53.304;6.606;2022-07-29T11:45:01;5.75;;;3.00;;
52284;SDS011;38238;53.304;6.606;2022-07-29T11:47:45;7.32;;;2.90;;
52284;SDS011;38238;53.304;6.606;2022-07-29T11:50:13;5.55;;;2.92;;
52284;SDS011;38238;53.304;6.606;2022-07-29T11:52:44;5.80;;;3.22;;
52284;SDS011;38238;53.304;6.606;2022-07-29T11:55:14;5.57;;;2.72;;
52284;SDS011;38238;53.304;6.606;2022-07-29T11:57:45;5.22;;;3.03;;
52284;SDS011;38238;53.304;6.606;2022-07-29T12:03:11;5.72;;;3.25;;
52284;SDS011;38238;53.304;6.606;2022-07-29T12:05:52;9.45;;;3.00;;
52284;SDS011;38238;53.304;6.606;2022-07-29T12:08:19;5.63;;;2.63;;
52284;SDS011;38238;53.304;6.606;2022-07-29T12:10:47;7.07;;;2.80;;
52284;SDS011;38238;53.304;6.606;2022-07-29T12:13:15;7.68;;;3.20;;
52284;SDS011;38238;53.304;6.606;2022-07-29T12:15:50;5.43;;;2.70;;
52284;SDS011;38238;53.304;6.606;2022-07-29T12:18:18;8.45;;;2.80;;
52284;SDS011;38238;53.304;6.606;2022-07-29T12:20:45;6.18;;;2.30;;
52284;SDS011;38238;53.304;6.606;2022-07-29T12:23:13;3.35;;;2.33;;
52284;SDS011;38238;53.304;6.606;2022-07-29T12:25:39;5.47;;;2.58;;
52284;SDS011;38238;53.304;6.606;2022-07-29T12:28:07;6.60;;;2.55;;
52284;SDS011;38238;53.304;6.606;2022-07-29T12:30:35;4.30;;;2.30;;
52284;SDS011;38238;53.304;6.606;2022-07-29T12:33:16;5.30;;;2.75;;
52284;SDS011;38238;53.304;6.606;2022-07-29T12:35:42;5.10;;;2.50;;
52284;SDS011;38238;53.304;6.606;2022-07-29T12:38:11;6.68;;;2.92;;
52284;SDS011;38238;53.304;6.606;2022-07-29T12:40:38;7.65;;;2.70;;
52284;SDS011;38238;53.304;6.606;2022-07-29T12:45:44;5.45;;;2.38;;
52284;SDS011;38238;53.304;6.606;2022-07-29T12:48:11;3.88;;;2.22;;
52284;SDS011;38238;53.304;6.606;2022-07-29T12:53:24;6.35;;;2.40;;
52284;SDS011;38238;53.304;6.606;2022-07-29T12:55:52;6.35;;;2.10;;
52284;SDS011;38238;53.304;6.606;2022-07-29T12:58:26;7.45;;;2.80;;
52284;SDS011;38238;53.304;6.606;2022-07-29T13:03:41;7.53;;;2.78;;
52284;SDS011;38238;53.304;6.606;2022-07-29T13:11:50;5.10;;;2.90;;
52284;SDS011;38238;53.304;6.606;2022-07-29T13:19:52;7.88;;;2.47;;
52284;SDS011;38238;53.304;6.606;2022-07-29T13:22:29;5.53;;;2.38;;
52284;SDS011;38238;53.304;6.606;2022-07-29T13:24:55;6.82;;;2.60;;
52284;SDS011;38238;53.304;6.606;2022-07-29T13:27:25;5.30;;;2.50;;
52284;SDS011;38238;53.304;6.606;2022-07-29T13:29:53;5.57;;;2.40;;
52284;SDS011;38238;53.304;6.606;2022-07-29T13:32:21;5.28;;;2.53;;
52284;SDS011;38238;53.304;6.606;2022-07-29T13:34:47;5.07;;;3.00;;
52284;SDS011;38238;53.304;6.606;2022-07-29T13:37:14;5.60;;;2.30;;
52284;SDS011;38238;53.304;6.606;2022-07-29T13:39:40;5.40;;;2.58;;
52284;SDS011;38238;53.304;6.606;2022-07-29T13:42:06;3.90;;;2.03;;
52284;SDS011;38238;53.304;6.606;2022-07-29T13:44:32;5.43;;;2.25;;
52284;SDS011;38238;53.304;6.606;2022-07-29T13:46:58;6.25;;;2.70;;
52284;SDS011;38238;53.304;6.606;2022-07-29T13:49:24;4.30;;;2.40;;
52284;SDS011;38238;53.304;6.606;2022-07-29T13:51:50;4.55;;;2.40;;
52284;SDS011;38238;53.304;6.606;2022-07-29T13:54:16;5.78;;;2.50;;
52284;SDS011;38238;53.304;6.606;2022-07-29T13:56:42;4.75;;;2.17;;
52284;SDS011;38238;53.304;6.606;2022-07-29T13:59:08;4.55;;;2.10;;
52284;SDS011;38238;53.304;6.606;2022-07-29T14:01:34;4.68;;;2.42;;
52284;SDS011;38238;53.304;6.606;2022-07-29T14:04:00;6.47;;;2.10;;
52284;SDS011;38238;53.304;6.606;2022-07-29T14:06:26;7.15;;;2.67;;
52284;SDS011;38238;53.304;6.606;2022-07-29T14:08:51;5.07;;;2.20;;
52284;SDS011;38238;53.304;6.606;2022-07-29T14:11:17;5.68;;;2.28;;
52284;SDS011;38238;53.304;6.606;2022-07-29T14:13:44;3.72;;;2.28;;
52284;SDS011;38238;53.304;6.606;2022-07-29T14:16:09;4.78;;;2.38;;
52284;SDS011;38238;53.304;6.606;2022-07-29T14:18:35;5.53;;;2.10;;
52284;SDS011;38238;53.304;6.606;2022-07-29T14:21:01;4.82;;;2.08;;
52284;SDS011;38238;53.304;6.606;2022-07-29T14:23:28;4.68;;;2.20;;
52284;SDS011;38238;53.304;6.606;2022-07-29T14:25:53;4.53;;;1.85;;
52284;SDS011;38238;53.304;6.606;2022-07-29T14:28:19;6.45;;;2.67;;
52284;SDS011;38238;53.304;6.606;2022-07-29T14:30:45;4.22;;;2.03;;
52284;SDS011;38238;53.304;6.606;2022-07-29T14:33:11;7.80;;;2.08;;
52284;SDS011;38238;53.304;6.606;2022-07-29T14:35:37;4.63;;;2.00;;
52284;SDS011;38238;53.304;6.606;2022-07-29T14:38:02;4.07;;;1.90;;
52284;SDS011;38238;53.304;6.606;2022-07-29T14:40:28;5.22;;;2.13;;
52284;SDS011;38238;53.304;6.606;2022-07-29T14:42:54;3.03;;;1.58;;
52284;SDS011;38238;53.304;6.606;2022-07-29T14:45:19;6.63;;;2.45;;
52284;SDS011;38238;53.304;6.606;2022-07-29T14:47:45;4.22;;;2.00;;
52284;SDS011;38238;53.304;6.606;2022-07-29T14:50:11;4.13;;;1.90;;
52284;SDS011;38238;53.304;6.606;2022-07-29T14:52:37;4.82;;;2.05;;
52284;SDS011;38238;53.304;6.606;2022-07-29T14:55:03;5.20;;;2.08;;
52284;SDS011;38238;53.304;6.606;2022-07-29T14:57:29;4.95;;;2.03;;
52284;SDS011;38238;53.304;6.606;2022-07-29T14:59:55;5.65;;;2.00;;
52284;SDS011;38238;53.304;6.606;2022-07-29T15:02:21;5.18;;;2.00;;
52284;SDS011;38238;53.304;6.606;2022-07-29T15:04:46;6.68;;;2.10;;
52284;SDS011;38238;53.304;6.606;2022-07-29T15:07:13;5.57;;;2.05;;
52284;SDS011;38238;53.304;6.606;2022-07-29T15:09:39;5.00;;;2.13;;
52284;SDS011;38238;53.304;6.606;2022-07-29T15:12:06;5.60;;;2.20;;
52284;SDS011;38238;53.304;6.606;2022-07-29T15:14:32;3.95;;;2.05;;
52284;SDS011;38238;53.304;6.606;2022-07-29T15:16:58;4.20;;;2.20;;
52284;SDS011;38238;53.304;6.606;2022-07-29T15:19:23;3.60;;;1.92;;
52284;SDS011;38238;53.304;6.606;2022-07-29T15:21:49;7.63;;;2.10;;
52284;SDS011;38238;53.304;6.606;2022-07-29T15:24:15;6.43;;;2.08;;
52284;SDS011;38238;53.304;6.606;2022-07-29T15:26:41;5.05;;;2.20;;
52284;SDS011;38238;53.304;6.606;2022-07-29T15:29:08;8.50;;;2.30;;
52284;SDS011;38238;53.304;6.606;2022-07-29T15:31:34;4.60;;;2.50;;
52284;SDS011;38238;53.304;6.606;2022-07-29T15:33:59;4.75;;;2.42;;
52284;SDS011;38238;53.304;6.606;2022-07-29T15:36:25;4.30;;;1.98;;
52284;SDS011;38238;53.304;6.606;2022-07-29T15:38:51;5.90;;;2.20;;
52284;SDS011;38238;53.304;6.606;2022-07-29T15:41:18;5.07;;;1.98;;
52284;SDS011;38238;53.304;6.606;2022-07-29T15:43:44;5.50;;;2.10;;
52284;SDS011;38238;53.304;6.606;2022-07-29T15:46:15;6.75;;;2.72;;
52284;SDS011;38238;53.304;6.606;2022-07-29T15:49:01;5.25;;;2.67;;
52284;SDS011;38238;53.304;6.606;2022-07-29T15:51:27;7.80;;;2.45;;
52284;SDS011;38238;53.304;6.606;2022-07-29T15:53:53;4.65;;;2.28;;
52284;SDS011;38238;53.304;6.606;2022-07-29T15:56:19;5.18;;;2.40;;
52284;SDS011;38238;53.304;6.606;2022-07-29T15:58:45;4.85;;;2.47;;
52284;SDS011;38238;53.304;6.606;2022-07-29T16:01:10;4.85;;;2.30;;
52284;SDS011;38238;53.304;6.606;2022-07-29T16:03:36;6.03;;;2.50;;
52284;SDS011;38238;53.304;6.606;2022-07-29T16:06:02;6.03;;;2.50;;
52284;SDS011;38238;53.304;6.606;2022-07-29T16:08:28;5.32;;;2.40;;
52284;SDS011;38238;53.304;6.606;2022-07-29T16:10:54;6.20;;;2.78;;
52284;SDS011;38238;53.304;6.606;2022-07-29T16:13:19;4.75;;;2.47;;
52284;SDS011;38238;53.304;6.606;2022-07-29T16:15:45;4.55;;;2.45;;
52284;SDS011;38238;53.304;6.606;2022-07-29T16:18:11;7.15;;;2.55;;